createdAt,value
2022-11-01T00:02:12.779Z,85.33
2022-11-01T00:04:40.963Z,85.43
2022-11-01T00:07:08.677Z,85.56
2022-11-01T00:09:36.467Z,85.55
2022-11-01T00:12:05.153Z,85.64
2022-11-01T00:14:33.121Z,85.71
2022-11-01T00:17:00.987Z,85.71
2022-11-01T00:19:28.849Z,85.71
2022-11-01T00:21:56.743Z,85.74
2022-11-01T00:24:25.347Z,85.75
2022-11-01T00:26:53.172Z,85.88
2022-11-01T00:29:21.005Z,85.73
2022-11-01T00:31:48.955Z,85.75
2022-11-01T00:34:18.193Z,85.86
2022-11-01T00:36:46.063Z,85.82
2022-11-01T00:39:16.361Z,85.86
2022-11-01T00:41:44.068Z,85.96
2022-11-01T00:44:12.018Z,86.14
2022-11-01T00:46:39.685Z,86.20
2022-11-01T00:49:07.380Z,86.24
2022-11-01T00:51:35.409Z,86.29
2022-11-01T00:54:03.692Z,86.39
2022-11-01T00:56:31.547Z,86.46
2022-11-01T00:58:59.218Z,86.54
2022-11-01T01:01:27.080Z,86.60
2022-11-01T01:03:55.662Z,86.69
2022-11-01T01:06:23.579Z,86.73
2022-11-01T01:08:51.412Z,86.70
2022-11-01T01:11:19.082Z,86.69
2022-11-01T01:13:46.822Z,86.63
2022-11-01T01:16:14.697Z,86.67
2022-11-01T01:18:42.862Z,86.77
2022-11-01T01:21:11.066Z,86.96
2022-11-01T01:23:38.753Z,86.79
2022-11-01T01:26:08.904Z,86.65
2022-11-01T01:28:41.868Z,86.65
2022-11-01T01:31:14.186Z,86.63
2022-11-01T01:33:42.150Z,86.82
2022-11-01T01:36:11.033Z,86.88
2022-11-01T01:38:38.996Z,86.95
2022-11-01T01:41:33.234Z,87.02
2022-11-01T01:44:01.253Z,87.08
2022-11-01T01:46:29.020Z,87.04
2022-11-01T01:49:00.187Z,87.05
2022-11-01T01:51:29.134Z,87.10
2022-11-01T01:53:58.890Z,87.18
2022-11-01T01:56:32.548Z,87.16
2022-11-01T01:59:18.557Z,87.23
2022-11-01T02:01:46.297Z,87.28
2022-11-01T02:04:39.281Z,87.29
2022-11-01T02:07:08.704Z,87.34
2022-11-01T02:09:37.866Z,87.31
2022-11-01T02:12:05.655Z,87.35
2022-11-01T02:14:33.453Z,87.24
2022-11-01T02:17:28.381Z,87.36
2022-11-01T02:20:05.011Z,87.46
2022-11-01T02:23:03.909Z,87.36
2022-11-01T02:25:53.751Z,87.15
2022-11-01T02:28:38.819Z,87.25
2022-11-01T02:31:35.561Z,87.36
2022-11-01T02:34:16.741Z,87.43
2022-11-01T02:36:49.317Z,87.48
2022-11-01T02:39:23.410Z,87.41
2022-11-01T02:41:58.976Z,87.47
2022-11-01T02:44:31.633Z,87.54
2022-11-01T02:47:02.831Z,87.60
2022-11-01T02:49:34.656Z,87.55
2022-11-01T02:52:04.570Z,87.44
2022-11-01T02:54:42.662Z,87.50
2022-11-01T02:57:33.073Z,87.67
2022-11-01T03:00:16.588Z,87.73
2022-11-01T03:02:45.677Z,87.72
2022-11-01T03:05:25.369Z,87.78
2022-11-01T03:08:00.666Z,87.86
2022-11-01T03:10:42.478Z,87.74
2022-11-01T03:13:32.972Z,87.74
2022-11-01T03:16:31.040Z,87.83
2022-11-01T03:19:13.963Z,87.89
2022-11-01T03:21:50.846Z,87.94
2022-11-01T03:24:33.553Z,87.97
2022-11-01T03:27:08.181Z,88.01
2022-11-01T03:29:38.456Z,87.74
2022-11-01T03:32:08.418Z,87.32
2022-11-01T03:34:39.356Z,87.31
2022-11-01T03:37:12.137Z,87.39
2022-11-01T03:39:48.375Z,87.44
2022-11-01T03:42:20.332Z,87.56
2022-11-01T03:44:53.348Z,87.55
2022-11-01T03:47:21.319Z,87.45
2022-11-01T03:50:17.246Z,87.45
2022-11-01T03:52:45.726Z,87.54
2022-11-01T03:55:18.809Z,87.21
2022-11-01T03:57:49.852Z,87.30
2022-11-01T04:00:23.675Z,87.60
2022-11-01T04:02:53.243Z,87.76
2022-11-01T04:05:22.679Z,87.81
2022-11-01T04:07:51.966Z,87.92
2022-11-01T04:10:21.050Z,87.81
2022-11-01T04:12:50.828Z,87.84
2022-11-01T04:15:39.014Z,87.93
2022-11-01T04:21:19.292Z,88.06
2022-11-01T04:23:47.555Z,88.04
2022-11-01T04:26:21.986Z,88.05
2022-11-01T04:28:59.707Z,88.07
2022-11-01T04:31:34.105Z,88.05
2022-11-01T04:34:04.105Z,88.09
2022-11-01T04:36:32.509Z,88.26
2022-11-01T04:39:00.207Z,88.06
2022-11-01T04:41:30.513Z,87.79
2022-11-01T04:43:59.701Z,87.66
2022-11-01T04:46:32.156Z,87.65
2022-11-01T04:49:00.019Z,87.54
2022-11-01T04:51:28.176Z,87.38
2022-11-01T04:53:56.566Z,87.40
2022-11-01T04:56:24.539Z,87.32
2022-11-01T04:58:52.509Z,87.51
2022-11-01T05:01:20.214Z,87.75
2022-11-01T05:03:49.585Z,88.04
2022-11-01T05:06:17.969Z,88.36
2022-11-01T05:08:45.785Z,88.31
2022-11-01T05:11:13.681Z,88.01
2022-11-01T05:13:42.265Z,88.07
2022-11-01T05:16:25.219Z,88.00
2022-11-01T05:18:53.080Z,88.02
2022-11-01T05:21:20.949Z,87.99
2022-11-01T05:23:49.478Z,88.28
2022-11-01T05:26:17.652Z,88.45
2022-11-01T05:28:45.641Z,88.40
2022-11-01T05:31:13.457Z,88.53
2022-11-01T05:33:41.098Z,88.63
2022-11-01T05:36:08.933Z,88.81
2022-11-01T05:38:36.795Z,88.92
2022-11-01T05:41:04.808Z,88.79
2022-11-01T05:43:32.941Z,88.91
2022-11-01T05:46:04.806Z,88.98
2022-11-01T05:48:33.487Z,89.09
2022-11-01T05:51:01.157Z,89.15
2022-11-01T05:53:28.867Z,89.31
2022-11-01T05:55:57.185Z,89.16
2022-11-01T05:58:29.612Z,89.00
2022-11-01T06:01:05.666Z,88.93
2022-11-01T06:03:35.561Z,88.95
2022-11-01T06:06:04.008Z,88.92
2022-11-01T06:08:34.278Z,88.81
2022-11-01T06:11:04.120Z,88.69
2022-11-01T06:13:33.143Z,88.77
2022-11-01T06:16:06.114Z,88.74
2022-11-01T06:18:34.303Z,88.87
2022-11-01T06:21:02.154Z,88.76
2022-11-01T06:23:29.822Z,88.58
2022-11-01T06:26:05.326Z,88.61
2022-11-01T06:28:33.548Z,88.43
2022-11-01T06:31:02.883Z,88.41
2022-11-01T06:33:32.159Z,88.33
2022-11-01T06:36:02.286Z,88.35
2022-11-01T06:38:30.232Z,88.16
2022-11-01T06:40:58.095Z,88.09
2022-11-01T06:43:25.971Z,88.08
2022-11-01T06:45:53.757Z,87.93
2022-11-01T06:48:21.847Z,87.80
2022-11-01T06:50:49.636Z,87.82
2022-11-01T06:53:17.334Z,87.82
2022-11-01T06:55:45.370Z,87.78
2022-11-01T06:58:13.064Z,87.66
2022-11-01T07:00:40.729Z,87.60
2022-11-01T07:03:12.177Z,87.52
2022-11-01T07:05:40.546Z,87.39
2022-11-01T07:08:13.084Z,87.32
2022-11-01T07:10:43.287Z,87.29
2022-11-01T07:13:13.144Z,87.25
2022-11-01T07:15:41.540Z,87.15
2022-11-01T07:18:09.839Z,87.06
2022-11-01T07:20:42.304Z,86.91
2022-11-01T07:23:14.463Z,86.79
2022-11-01T07:25:42.936Z,86.67
2022-11-01T07:28:11.152Z,86.47
2022-11-01T07:30:39.626Z,86.33
2022-11-01T07:33:07.409Z,86.23
2022-11-01T07:35:36.765Z,86.13
2022-11-01T07:38:09.699Z,86.04
2022-11-01T07:40:40.659Z,85.93
2022-11-01T07:43:09.053Z,85.78
2022-11-01T07:45:37.663Z,85.66
2022-11-01T07:48:10.670Z,85.53
2022-11-01T07:50:40.606Z,85.41
2022-11-01T07:53:12.137Z,85.25
2022-11-01T07:55:40.964Z,85.06
2022-11-01T07:58:10.404Z,84.83
2022-11-01T08:00:39.914Z,84.58
2022-11-01T08:03:19.480Z,84.20
2022-11-01T08:05:48.160Z,83.95
2022-11-01T08:08:16.844Z,83.80
2022-11-01T08:10:45.276Z,83.35
2022-11-01T08:13:22.052Z,83.36
2022-11-01T08:15:52.380Z,83.16
2022-11-01T08:18:22.739Z,82.99
2022-11-01T08:20:52.512Z,82.61
2022-11-01T08:23:21.050Z,82.27
2022-11-01T08:25:49.290Z,82.06
2022-11-01T08:28:19.594Z,81.73
2022-11-01T08:30:50.715Z,81.50
2022-11-01T08:33:18.433Z,81.32
2022-11-01T08:35:50.407Z,80.92
2022-11-01T08:38:19.535Z,80.77
2022-11-01T08:40:48.201Z,80.28
2022-11-01T08:43:16.952Z,79.34
2022-11-01T08:45:45.995Z,78.28
2022-11-01T08:48:14.358Z,77.19
2022-11-01T08:50:42.154Z,75.62
2022-11-01T08:53:12.960Z,74.80
2022-11-01T08:55:42.007Z,73.40
2022-11-01T08:58:10.531Z,73.04
2022-11-01T09:00:38.310Z,73.48
2022-11-01T09:03:06.215Z,69.93
2022-11-01T09:05:34.787Z,65.72
2022-11-01T09:08:03.097Z,61.09
2022-11-01T09:10:31.545Z,57.77
2022-11-01T09:13:01.041Z,55.17
2022-11-01T09:15:29.815Z,54.10
2022-11-01T09:17:57.457Z,55.89
2022-11-01T09:20:26.735Z,57.97
2022-11-01T09:22:54.699Z,59.95
2022-11-01T09:25:22.895Z,61.09
2022-11-01T09:27:50.645Z,61.69
2022-11-01T09:30:18.582Z,62.13
2022-11-01T09:32:46.707Z,62.55
2022-11-01T09:35:14.533Z,63.03
2022-11-01T09:37:42.998Z,63.24
2022-11-01T09:40:14.355Z,63.37
2022-11-01T09:42:45.384Z,63.46
2022-11-01T09:45:20.270Z,64.27
2022-11-01T09:47:52.675Z,64.20
2022-11-01T09:50:54.335Z,64.31
2022-11-01T09:53:28.364Z,64.60
2022-11-01T09:56:10.648Z,64.71
2022-11-01T09:59:16.402Z,64.62
2022-11-01T10:01:57.016Z,65.24
2022-11-01T10:04:50.740Z,64.97
2022-11-01T10:07:45.724Z,64.30
2022-11-01T10:10:51.975Z,63.68
2022-11-01T10:13:41.587Z,63.76
2022-11-01T10:16:22.565Z,63.77
2022-11-01T10:19:02.849Z,63.93
2022-11-01T10:21:43.171Z,63.92
2022-11-01T10:24:44.145Z,63.50
2022-11-01T10:27:11.757Z,63.27
2022-11-01T10:30:03.995Z,63.34
2022-11-01T10:32:58.502Z,63.42
2022-11-01T10:35:34.460Z,63.72
2022-11-01T10:38:41.915Z,63.93
2022-11-01T10:41:36.564Z,64.05
2022-11-01T10:44:15.341Z,64.41
2022-11-01T10:46:49.483Z,64.35
2022-11-01T10:49:24.599Z,64.41
2022-11-01T10:51:59.226Z,64.36
2022-11-01T10:54:30.634Z,64.40
2022-11-01T10:57:08.654Z,64.40
2022-11-01T10:59:41.175Z,64.26
2022-11-01T11:02:29.960Z,64.21
2022-11-01T11:04:58.945Z,64.44
2022-11-01T11:07:32.186Z,64.20
2022-11-01T11:12:37.126Z,64.62
2022-11-01T11:15:18.355Z,64.75
2022-11-01T11:17:51.246Z,64.81
2022-11-01T11:20:26.858Z,64.80
2022-11-01T11:22:54.618Z,64.77
2022-11-01T11:25:33.002Z,64.83
2022-11-01T11:28:02.869Z,64.89
2022-11-01T11:30:35.875Z,64.88
2022-11-01T11:33:04.733Z,64.67
2022-11-01T11:35:36.575Z,64.51
2022-11-01T11:38:07.298Z,64.47
2022-11-01T11:40:38.958Z,64.49
2022-11-01T11:43:30.350Z,64.50
2022-11-01T11:46:21.115Z,64.58
2022-11-01T11:48:56.854Z,64.57
2022-11-01T11:51:32.813Z,64.59
2022-11-01T11:54:22.736Z,64.67
2022-11-01T11:56:54.698Z,64.51
2022-11-01T11:59:28.520Z,64.45
2022-11-01T12:02:15.016Z,64.55
2022-11-01T12:04:56.651Z,64.97
2022-11-01T12:07:45.697Z,65.20
2022-11-01T12:10:47.791Z,65.36
2022-11-01T12:13:25.349Z,65.63
2022-11-01T12:16:08.629Z,65.84
2022-11-01T12:18:49.985Z,66.11
2022-11-01T12:21:24.147Z,66.15
2022-11-01T12:24:05.138Z,66.38
2022-11-01T12:26:36.359Z,66.41
2022-11-01T12:29:25.197Z,66.36
2022-11-01T12:31:55.657Z,66.23
2022-11-01T12:34:31.180Z,66.03
2022-11-01T12:37:03.235Z,65.72
2022-11-01T12:39:43.183Z,65.81
2022-11-01T12:42:18.794Z,65.65
2022-11-01T12:44:52.929Z,65.42
2022-11-01T12:47:46.654Z,65.66
2022-11-01T12:50:32.816Z,65.46
2022-11-01T12:53:18.353Z,65.53
2022-11-01T12:55:47.297Z,65.59
2022-11-01T12:58:19.314Z,65.60
2022-11-01T13:01:08.934Z,65.73
2022-11-01T13:03:54.496Z,65.91
2022-11-01T13:06:44.046Z,66.02
2022-11-01T13:09:36.781Z,66.05
2022-11-01T13:12:37.084Z,66.02
2022-11-01T13:15:16.540Z,65.99
2022-11-01T13:18:18.562Z,66.05
2022-11-01T13:20:56.775Z,66.10
2022-11-01T13:23:44.308Z,65.97
2022-11-01T13:26:36.882Z,65.88
2022-11-01T13:29:35.530Z,65.98
2022-11-01T13:32:24.980Z,66.05
2022-11-01T13:35:13.661Z,66.12
2022-11-01T13:38:02.468Z,66.27
2022-11-01T13:40:50.503Z,66.45
2022-11-01T13:43:25.097Z,66.57
2022-11-01T13:46:14.525Z,66.64
2022-11-01T13:49:08.293Z,66.80
2022-11-01T13:51:56.840Z,66.96
2022-11-01T13:54:39.892Z,67.09
2022-11-01T13:57:11.537Z,67.23
2022-11-01T13:59:45.585Z,67.36
2022-11-01T14:02:22.832Z,67.47
2022-11-01T14:05:13.775Z,67.57
2022-11-01T14:07:45.562Z,67.74
2022-11-01T14:10:21.056Z,67.99
2022-11-01T14:13:00.090Z,68.29
2022-11-01T14:15:30.495Z,68.52
2022-11-01T14:18:08.415Z,68.68
2022-11-01T14:20:48.302Z,68.81
2022-11-01T14:23:29.592Z,68.91
2022-11-01T14:26:18.564Z,69.06
2022-11-01T14:28:52.649Z,69.20
2022-11-01T14:31:25.333Z,69.42
2022-11-01T14:33:59.886Z,69.60
2022-11-01T14:36:39.644Z,69.79
2022-11-01T14:39:23.084Z,69.99
2022-11-01T14:41:56.390Z,70.28
2022-11-01T14:44:50.601Z,70.53
2022-11-01T14:47:37.868Z,70.61
2022-11-01T14:50:27.068Z,70.79
2022-11-01T14:53:11.382Z,71.01
2022-11-01T14:55:39.546Z,71.14
2022-11-01T14:58:21.821Z,71.37
2022-11-01T15:00:55.441Z,71.53
2022-11-01T15:03:25.457Z,71.76
2022-11-01T15:05:54.372Z,71.83
2022-11-01T15:08:40.732Z,72.23
2022-11-01T15:11:11.013Z,72.41
2022-11-01T15:13:43.946Z,72.60
2022-11-01T15:16:28.069Z,72.73
2022-11-01T15:19:06.618Z,73.05
2022-11-01T15:21:35.331Z,73.18
2022-11-01T15:24:05.873Z,73.29
2022-11-01T15:26:34.504Z,73.51
2022-11-01T15:29:06.759Z,73.76
2022-11-01T15:31:36.328Z,73.82
2022-11-01T15:34:25.823Z,73.97
2022-11-01T15:36:56.273Z,74.19
2022-11-01T15:39:29.087Z,74.33
2022-11-01T15:41:58.202Z,74.51
2022-11-01T15:44:32.990Z,74.67
2022-11-01T15:47:07.918Z,74.80
2022-11-01T15:49:59.003Z,74.91
2022-11-01T15:52:48.188Z,75.06
2022-11-01T15:55:30.667Z,75.33
2022-11-01T15:58:07.978Z,75.46
2022-11-01T16:00:42.401Z,75.43
2022-11-01T16:03:27.493Z,75.60
2022-11-01T16:06:03.059Z,75.65
2022-11-01T16:08:39.529Z,75.80
2022-11-01T16:11:09.958Z,75.88
2022-11-01T16:13:38.238Z,76.08
2022-11-01T16:16:12.762Z,76.24
2022-11-01T16:18:45.654Z,76.25
2022-11-01T16:21:19.554Z,76.43
2022-11-01T16:23:56.277Z,76.47
2022-11-01T16:26:27.765Z,76.52
2022-11-01T16:28:56.555Z,76.53
2022-11-01T16:31:33.646Z,76.75
2022-11-01T16:34:01.551Z,76.91
2022-11-01T16:36:37.266Z,76.85
2022-11-01T16:39:33.239Z,77.09
2022-11-01T16:42:01.356Z,77.17
2022-11-01T16:44:31.378Z,77.17
2022-11-01T16:47:02.107Z,77.44
2022-11-01T16:49:34.569Z,77.43
2022-11-01T16:52:06.021Z,77.57
2022-11-01T16:54:33.929Z,77.81
2022-11-01T16:57:05.375Z,77.81
2022-11-01T16:59:43.332Z,77.82
2022-11-01T17:02:18.173Z,78.08
2022-11-01T17:04:50.809Z,78.19
2022-11-01T17:07:18.744Z,78.12
2022-11-01T17:09:49.760Z,78.19
2022-11-01T17:12:17.694Z,78.13
2022-11-01T17:14:46.692Z,78.37
2022-11-01T17:17:20.069Z,78.35
2022-11-01T17:19:56.068Z,78.43
2022-11-01T17:22:35.140Z,78.59
2022-11-01T17:25:06.615Z,78.77
2022-11-01T17:27:34.536Z,78.87
2022-11-01T17:30:04.536Z,78.88
2022-11-01T17:32:35.321Z,78.92
2022-11-01T17:35:06.720Z,78.99
2022-11-01T17:37:39.012Z,79.06
2022-11-01T17:40:22.852Z,79.05
2022-11-01T17:42:54.502Z,79.19
2022-11-01T17:45:45.392Z,79.25
2022-11-01T17:48:13.841Z,79.35
2022-11-01T17:50:43.809Z,79.41
2022-11-01T17:53:16.223Z,79.50
2022-11-01T17:55:45.727Z,79.61
2022-11-01T17:58:16.401Z,79.66
2022-11-01T18:00:45.361Z,79.69
2022-11-01T18:03:15.538Z,79.74
2022-11-01T18:05:43.430Z,79.79
2022-11-01T18:08:18.603Z,79.92
2022-11-01T18:11:12.547Z,80.00
2022-11-01T18:13:52.947Z,80.13
2022-11-01T18:16:28.355Z,80.20
2022-11-01T18:19:28.915Z,80.22
2022-11-01T18:22:12.874Z,80.20
2022-11-01T18:24:55.069Z,80.29
2022-11-01T18:27:39.634Z,80.36
2022-11-01T18:30:21.734Z,80.39
2022-11-01T18:33:25.171Z,80.36
2022-11-01T18:36:13.641Z,80.39
2022-11-01T18:39:04.086Z,80.44
2022-11-01T18:41:32.082Z,80.53
2022-11-01T18:44:04.412Z,80.56
2022-11-01T18:46:43.127Z,80.66
2022-11-01T18:49:13.972Z,80.81
2022-11-01T18:51:42.990Z,80.90
2022-11-01T18:54:14.369Z,80.97
2022-11-01T18:56:49.519Z,81.02
2022-11-01T18:59:33.109Z,81.05
2022-11-01T19:02:22.951Z,81.12
2022-11-01T19:05:12.500Z,81.10
2022-11-01T19:08:05.312Z,81.23
2022-11-01T19:10:35.394Z,81.28
2022-11-01T19:13:12.846Z,81.34
2022-11-01T19:15:41.975Z,81.41
2022-11-01T19:18:19.149Z,81.47
2022-11-01T19:20:53.145Z,81.50
2022-11-01T19:23:45.993Z,81.58
2022-11-01T19:26:23.360Z,81.82
2022-11-01T19:28:52.796Z,81.95
2022-11-01T19:31:34.314Z,81.98
2022-11-01T19:34:25.858Z,82.06
2022-11-01T19:36:56.058Z,82.21
2022-11-01T19:39:29.806Z,82.24
2022-11-01T19:42:29.723Z,82.30
2022-11-01T19:45:14.932Z,82.56
2022-11-01T19:47:50.473Z,82.62
2022-11-01T19:50:29.322Z,82.64
2022-11-01T19:53:00.705Z,82.74
2022-11-01T19:55:49.247Z,82.64
2022-11-01T19:58:29.342Z,82.84
2022-11-01T20:01:07.513Z,82.67
2022-11-01T20:04:02.846Z,82.88
2022-11-01T20:06:36.260Z,83.13
2022-11-01T20:09:37.027Z,83.01
2022-11-01T20:12:06.485Z,82.93
2022-11-01T20:14:37.396Z,82.94
2022-11-01T20:17:05.191Z,82.90
2022-11-01T20:19:34.591Z,82.97
2022-11-01T20:22:02.756Z,83.04
2022-11-01T20:24:31.318Z,82.98
2022-11-01T20:27:01.271Z,83.24
2022-11-01T20:29:29.409Z,83.23
2022-11-01T20:31:57.184Z,83.20
2022-11-01T20:34:30.368Z,83.08
2022-11-01T20:37:22.659Z,83.14
2022-11-01T20:39:45.820Z,83.17
2022-11-01T20:42:13.680Z,83.25
2022-11-01T20:44:41.676Z,83.22
2022-11-01T20:47:09.592Z,83.25
2022-11-01T20:49:37.508Z,83.37
2022-11-01T20:52:33.848Z,83.34
2022-11-01T20:54:57.716Z,83.35
2022-11-01T20:57:28.424Z,83.35
2022-11-01T20:59:59.667Z,83.35
2022-11-01T21:02:31.194Z,83.31
2022-11-01T21:05:18.351Z,83.22
2022-11-01T21:07:48.121Z,83.25
2022-11-01T21:10:40.231Z,83.25
2022-11-01T21:13:38.121Z,83.26
2022-11-01T21:16:25.077Z,83.17
2022-11-01T21:19:00.729Z,83.20
2022-11-01T21:21:46.288Z,83.26
2022-11-01T21:24:31.408Z,83.23
2022-11-01T21:27:11.487Z,83.16
2022-11-01T21:29:49.542Z,83.16
2022-11-01T21:32:41.009Z,83.16
2022-11-01T21:35:41.078Z,83.17
2022-11-01T21:38:35.056Z,83.19
2022-11-01T21:41:13.518Z,83.21
2022-11-01T21:43:44.987Z,83.14
2022-11-01T21:46:20.350Z,83.14
2022-11-01T21:48:54.884Z,83.15
2022-11-01T21:51:22.865Z,83.15
2022-11-01T21:53:53.865Z,83.10
2022-11-01T21:56:22.148Z,83.06
2022-11-01T21:58:51.685Z,83.01
2022-11-01T22:01:19.485Z,83.01
2022-11-01T22:03:54.065Z,82.99
2022-11-01T22:06:21.993Z,82.88
2022-11-01T22:08:54.593Z,82.87
2022-11-01T22:11:23.824Z,82.82
2022-11-01T22:13:56.655Z,82.80
2022-11-01T22:16:25.865Z,82.80
2022-11-01T22:18:53.866Z,82.76
2022-11-01T22:21:24.998Z,82.75
2022-11-01T22:23:56.056Z,82.68
2022-11-01T22:26:27.658Z,82.61
2022-11-01T22:28:58.631Z,82.62
2022-11-01T22:31:28.857Z,82.54
2022-11-01T22:33:57.816Z,82.57
2022-11-01T22:36:31.080Z,82.57
2022-11-01T22:39:03.050Z,82.53
2022-11-01T22:41:39.977Z,82.55
2022-11-01T22:44:16.542Z,82.58
2022-11-01T22:46:47.325Z,82.52
2022-11-01T22:49:29.309Z,82.57
2022-11-01T22:52:07.375Z,82.63
2022-11-01T22:54:55.045Z,82.64
2022-11-01T22:57:27.580Z,82.61
2022-11-01T23:00:23.883Z,82.54
2022-11-01T23:03:04.202Z,82.58
2022-11-01T23:05:39.437Z,82.64
2022-11-01T23:08:22.602Z,82.69
2022-11-01T23:10:55.132Z,82.62
2022-11-01T23:13:45.104Z,82.67
2022-11-01T23:16:26.811Z,82.69
2022-11-01T23:18:59.836Z,82.65
2022-11-01T23:21:28.088Z,82.66
2022-11-01T23:23:57.827Z,82.68
2022-11-01T23:26:25.687Z,82.71
2022-11-01T23:28:58.511Z,82.75
2022-11-01T23:31:29.406Z,82.63
2022-11-01T23:34:00.132Z,82.47
2022-11-01T23:36:38.702Z,82.56
2022-11-01T23:39:13.801Z,82.61
2022-11-01T23:41:50.928Z,82.56
2022-11-01T23:44:41.011Z,82.61
2022-11-01T23:47:24.788Z,82.66
2022-11-01T23:50:00.955Z,82.57
2022-11-01T23:52:46.372Z,82.46
2022-11-01T23:55:25.058Z,82.44
2022-11-01T23:58:02.163Z,82.44
